Time;durP1;ratioP1;P1;durP2;ratioP2;P2;SDS_P1;SDS_P2;PMS_P1;PMS_P2;Temp;Humidity;BMP_temperature;BMP_pressure;BME280_temperature;BME280_humidity;BME280_pressure;Samples;Min_cycle;Max_cycle;Signal;HPM_P1;HPM_P2
2022/07/25 00:00:04;;;;;;;7.05;6.13;;;;;;;31.16;32.57;96465.00;4956824;28;20046;-33
2022/07/25 00:02:30;;;;;;;7.43;6.28;;;;;;;31.15;32.97;96458.03;4961356;28;20040;-27
2022/07/25 00:04:55;;;;;;;7.38;6.63;;;;;;;31.16;32.98;96454.44;4961117;28;20042;-26
2022/07/25 00:07:20;;;;;;;7.85;5.97;;;;;;;31.17;32.97;96457.94;4957567;28;20743;-29
2022/07/25 00:09:46;;;;;;;8.05;6.22;;;;;;;31.17;32.60;96455.28;4958578;28;20022;-28
2022/07/25 00:12:11;;;;;;;6.93;6.22;;;;;;;31.18;32.79;96459.59;4957398;28;20481;-29
2022/07/25 00:14:37;;;;;;;7.60;6.43;;;;;;;31.18;32.75;96470.19;4955900;28;20192;-27
2022/07/25 00:17:02;;;;;;;6.68;5.97;;;;;;;31.17;33.00;96464.03;4954629;28;20034;-30
2022/07/25 00:19:27;;;;;;;7.60;5.85;;;;;;;31.19;32.87;96465.75;4956148;28;20037;-27
2022/07/25 00:21:53;;;;;;;6.97;6.00;;;;;;;31.18;32.87;96467.53;4953501;28;20041;-30
2022/07/25 00:24:18;;;;;;;9.10;6.97;;;;;;;31.19;32.77;96465.75;4957534;28;20022;-30
2022/07/25 00:26:44;;;;;;;7.28;6.47;;;;;;;31.18;32.89;96470.19;4958876;28;20299;-27
2022/07/25 00:29:09;;;;;;;8.68;5.90;;;;;;;31.16;33.00;96457.06;4957251;28;20515;-27
2022/07/25 00:31:35;;;;;;;7.35;6.50;;;;;;;31.17;32.66;96471.16;4952418;28;20026;-27
2022/07/25 00:34:00;;;;;;;9.48;6.20;;;;;;;31.16;32.54;96461.50;4954259;28;20762;-28
2022/07/25 00:36:25;;;;;;;7.97;6.32;;;;;;;31.16;32.97;96459.72;4952386;28;20100;-27
2022/07/25 00:38:51;;;;;;;8.38;6.32;;;;;;;31.18;33.01;96464.88;4956297;28;20034;-31
2022/07/25 00:41:16;;;;;;;7.13;6.43;;;;;;;31.17;32.65;96458.75;4951167;28;20126;-30
2022/07/25 00:43:43;;;;;;;7.20;6.45;;;;;;;31.19;32.73;96457.81;4958699;28;20038;-27
2022/07/25 00:46:12;;;;;;;7.80;6.00;;;;;;;31.19;32.98;96450.69;4956052;28;20041;-30
2022/07/25 00:48:37;;;;;;;6.43;5.75;;;;;;;31.20;32.82;96452.34;4958374;28;20107;-30
2022/07/25 00:51:03;;;;;;;8.25;6.00;;;;;;;31.20;33.08;96449.72;4959899;28;20580;-28
2022/07/25 00:53:28;;;;;;;10.13;6.15;;;;;;;31.21;32.94;96447.91;4947350;28;20487;-30
2022/07/25 00:55:53;;;;;;;6.70;6.00;;;;;;;31.20;32.86;96451.53;4966376;28;20033;-31
2022/07/25 00:58:19;;;;;;;8.65;6.32;;;;;;;31.20;32.95;96440.94;4976650;28;20737;-32
2022/07/25 01:00:45;;;;;;;10.57;6.28;;;;;;;31.20;32.73;96440.94;4968750;28;20030;-27
2022/07/25 01:03:10;;;;;;;10.65;6.07;;;;;;;31.19;32.73;96445.38;4963198;28;20124;-27
2022/07/25 01:05:35;;;;;;;6.75;6.15;;;;;;;31.17;32.53;96442.03;4955308;28;20660;-30
2022/07/25 01:08:01;;;;;;;7.07;6.30;;;;;;;31.16;32.79;96442.97;4959817;28;20034;-29
2022/07/25 01:10:29;;;;;;;7.40;5.68;;;;;;;31.15;32.94;96441.31;4960229;28;20037;-27
2022/07/25 01:12:54;;;;;;;7.63;5.60;;;;;;;31.15;32.80;96443.97;4976699;28;20112;-27
2022/07/25 01:15:22;;;;;;;7.40;6.07;;;;;;;31.13;32.78;96441.44;4964664;28;20850;-30
2022/07/25 01:17:48;;;;;;;6.97;5.47;;;;;;;31.13;32.87;96440.59;4960618;28;20044;-24
2022/07/25 01:20:23;;;;;;;9.63;5.88;;;;;;;31.14;32.96;96442.28;4964255;28;20034;-29
2022/07/25 01:22:49;;;;;;;6.78;5.88;;;;;;;31.13;32.99;96432.66;4964967;28;20029;-30
2022/07/25 01:25:14;;;;;;;8.57;6.45;;;;;;;31.13;32.82;96432.66;4961890;28;20123;-28
2022/07/25 01:27:40;;;;;;;7.90;6.28;;;;;;;31.12;32.87;96428.34;4961190;28;21158;-29
2022/07/25 01:30:07;;;;;;;6.07;5.47;;;;;;;31.11;32.83;96438.09;4963126;28;20033;-27
2022/07/25 01:32:33;;;;;;;6.93;5.65;;;;;;;31.12;32.81;96433.63;4959210;28;20153;-29
2022/07/25 01:34:58;;;;;;;6.68;5.72;;;;;;;31.11;32.78;96427.50;4963215;28;20018;-29
2022/07/25 01:37:24;;;;;;;8.43;6.00;;;;;;;31.11;33.00;96431.94;4959904;28;20041;-28
2022/07/25 01:39:49;;;;;;;6.53;5.93;;;;;;;31.11;32.71;96426.63;4958133;28;21037;-27
2022/07/25 01:42:14;;;;;;;6.75;5.63;;;;;;;31.11;33.15;96427.50;4959735;28;20036;-29
2022/07/25 01:44:40;;;;;;;6.72;5.85;;;;;;;31.10;32.84;96430.25;4963620;28;20037;-31
2022/07/25 01:47:05;;;;;;;7.43;5.60;;;;;;;31.12;33.00;96421.22;4955456;28;20403;-25
2022/07/25 01:49:30;;;;;;;7.07;5.90;;;;;;;31.11;33.02;96424.84;4961119;28;20037;-32
2022/07/25 01:51:56;;;;;;;7.35;5.60;;;;;;;31.13;33.20;96424.72;4957944;28;20064;-27
2022/07/25 01:54:21;;;;;;;7.75;6.28;;;;;;;31.13;33.01;96425.56;4955091;28;20816;-28
2022/07/25 01:56:47;;;;;;;8.32;5.93;;;;;;;31.14;32.86;96421.97;4953467;28;20132;-32
2022/07/25 01:59:12;;;;;;;6.00;5.35;;;;;;;31.14;32.85;96424.59;4959693;28;20037;-25
2022/07/25 02:01:37;;;;;;;6.35;5.75;;;;;;;31.15;33.12;96420.13;4957585;28;23430;-31
2022/07/25 02:04:03;;;;;;;6.30;5.70;;;;;;;31.15;32.91;96414.84;4954687;28;20030;-31
2022/07/25 02:06:29;;;;;;;6.65;5.97;;;;;;;31.16;32.98;96416.50;4962044;28;20377;-29
2022/07/25 02:08:54;;;;;;;6.97;6.28;;;;;;;31.16;32.81;96411.22;4954902;28;20029;-27
2022/07/25 02:11:19;;;;;;;6.88;6.18;;;;;;;31.16;32.60;96408.56;4955984;28;20033;-29
2022/07/25 02:13:45;;;;;;;8.25;5.60;;;;;;;31.15;33.07;96407.75;4959009;28;20026;-28
2022/07/25 02:16:10;;;;;;;6.82;6.13;;;;;;;31.15;33.11;96402.47;4963665;28;20033;-27
2022/07/25 02:18:36;;;;;;;6.75;6.05;;;;;;;31.16;32.97;96403.28;4955297;28;20058;-30
2022/07/25 02:21:05;;;;;;;6.80;5.90;;;;;;;31.16;32.76;96392.69;4962954;28;20025;-28
2022/07/25 02:23:31;;;;;;;6.65;5.95;;;;;;;31.16;33.09;96392.69;4961446;28;20037;-34
2022/07/25 02:25:56;;;;;;;8.90;5.72;;;;;;;31.14;32.84;96384.06;4955320;28;20037;-32
2022/07/25 02:28:22;;;;;;;7.35;6.05;;;;;;;31.15;32.78;96386.59;4960983;28;20026;-31
2022/07/25 02:30:47;;;;;;;6.07;5.47;;;;;;;31.16;32.82;96390.06;4959727;28;20038;-32
2022/07/25 02:33:13;;;;;;;8.68;5.88;;;;;;;31.15;32.82;96389.22;4959809;28;20037;-29
2022/07/25 02:35:38;;;;;;;8.20;6.18;;;;;;;31.15;33.04;96391.03;4962239;28;20045;-28
2022/07/25 02:38:03;;;;;;;7.57;5.90;;;;;;;31.15;33.00;96380.44;4958427;28;20037;-27
2022/07/25 02:40:29;;;;;;;6.43;5.75;;;;;;;31.14;32.83;96384.06;4955257;28;20045;-26
2022/07/25 02:42:54;;;;;;;6.43;5.82;;;;;;;31.14;32.87;96384.06;4961045;28;20443;-30
2022/07/25 02:45:19;;;;;;;6.70;6.03;;;;;;;31.14;32.40;96384.06;4957007;28;20045;-30
2022/07/25 02:47:45;;;;;;;9.07;6.28;;;;;;;31.12;32.81;96391.28;4957056;28;20026;-31
2022/07/25 02:50:10;;;;;;;6.30;5.70;;;;;;;31.13;33.08;96385.03;4959020;28;20037;-30
2022/07/25 02:52:36;;;;;;;6.47;5.85;;;;;;;31.12;33.07;96380.72;4957259;28;20046;-27
2022/07/25 02:55:01;;;;;;;6.22;5.63;;;;;;;31.13;32.67;96383.22;4962546;28;20022;-27
2022/07/25 02:57:26;;;;;;;8.02;6.10;;;;;;;31.12;32.72;96380.72;4959952;28;20041;-28
2022/07/25 02:59:52;;;;;;;7.28;6.22;;;;;;;31.12;32.64;96375.41;4960427;28;20650;-29
2022/07/25 03:02:17;;;;;;;6.15;5.38;;;;;;;31.11;32.87;96379.84;4953676;28;20033;-27
2022/07/25 03:04:43;;;;;;;6.53;5.80;;;;;;;31.12;33.04;96380.72;4957691;28;20556;-27
2022/07/25 03:07:08;;;;;;;6.60;5.90;;;;;;;31.11;32.92;96374.56;4960000;28;20037;-33
2022/07/25 03:09:33;;;;;;;7.32;5.60;;;;;;;31.11;32.92;96376.34;4955651;28;20030;-29
2022/07/25 03:11:59;;;;;;;6.53;5.70;;;;;;;31.11;32.69;96384.28;4951566;28;20029;-29
2022/07/25 03:14:24;;;;;;;5.82;5.32;;;;;;;31.11;32.94;96373.72;4959535;28;20046;-28
2022/07/25 03:16:49;;;;;;;7.13;5.65;;;;;;;31.11;32.71;96373.72;4956007;28;20044;-30
2022/07/25 03:19:15;;;;;;;7.40;5.82;;;;;;;31.11;32.79;96365.78;4961462;28;20030;-29
2022/07/25 03:21:40;;;;;;;8.02;6.43;;;;;;;31.10;32.77;96364.94;4968157;28;20656;-26
2022/07/25 03:24:06;;;;;;;8.30;5.72;;;;;;;31.11;32.95;96363.97;4967466;28;20030;-30
2022/07/25 03:26:31;;;;;;;5.78;5.15;;;;;;;31.10;32.91;96356.16;4973003;28;20657;-30
2022/07/25 03:28:56;;;;;;;6.35;5.28;;;;;;;31.09;32.91;96352.66;4969297;28;20041;-29
2022/07/25 03:31:22;;;;;;;17.25;5.97;;;;;;;31.09;32.95;96351.84;4966036;28;20685;-26
2022/07/25 03:33:47;;;;;;;7.00;5.47;;;;;;;31.10;32.71;96353.50;4966070;28;20044;-32
2022/07/25 03:36:13;;;;;;;8.15;6.20;;;;;;;31.10;32.76;96356.16;4964356;28;20056;-35
2022/07/25 03:38:38;;;;;;;7.43;6.07;;;;;;;31.10;32.93;96356.16;4959549;28;20030;-32
2022/07/25 03:41:04;;;;;;;6.88;6.18;;;;;;;31.10;32.70;96361.44;4959602;28;20033;-28
2022/07/25 03:43:30;;;;;;;6.38;5.57;;;;;;;31.09;32.82;96357.94;4958051;28;20164;-30
2022/07/25 03:45:55;;;;;;;6.45;5.80;;;;;;;31.09;32.88;96346.56;4960112;28;20022;-27
2022/07/25 03:48:20;;;;;;;6.68;6.03;;;;;;;31.10;32.60;96350.88;4962685;28;20108;-30
2022/07/25 03:50:46;;;;;;;6.22;5.63;;;;;;;31.10;32.49;96340.28;4961906;28;20132;-27
2022/07/25 03:53:11;;;;;;;7.07;6.05;;;;;;;31.10;32.79;96335.00;4958751;28;20030;-31
2022/07/25 03:55:38;;;;;;;6.47;5.82;;;;;;;31.09;32.51;96328.03;4956533;28;20781;-26
2022/07/25 03:58:03;;;;;;;7.97;5.80;;;;;;;31.10;32.79;96335.00;4955193;28;20286;-32
2022/07/25 04:00:29;;;;;;;7.32;5.75;;;;;;;31.10;32.71;96329.69;4955595;28;20030;-27
2022/07/25 04:02:54;;;;;;;7.10;5.70;;;;;;;31.10;32.81;96327.91;4962700;28;20879;-28
2022/07/25 04:05:19;;;;;;;6.25;5.60;;;;;;;31.11;32.51;96328.72;4953076;28;20087;-29
2022/07/25 04:07:45;;;;;;;6.72;5.32;;;;;;;31.11;32.77;96326.06;4957847;28;20030;-28
2022/07/25 04:10:10;;;;;;;6.38;5.15;;;;;;;31.12;32.88;96333.06;4957272;28;20037;-30
2022/07/25 04:12:36;;;;;;;5.90;5.30;;;;;;;31.12;32.89;96330.44;4954692;28;20096;-29
2022/07/25 04:15:01;;;;;;;5.60;5.00;;;;;;;31.11;32.85;96320.78;4952737;28;20038;-29
2022/07/25 04:17:27;;;;;;;6.45;5.25;;;;;;;31.11;32.81;96315.50;4953840;28;20152;-30
2022/07/25 04:19:52;;;;;;;6.15;5.40;;;;;;;31.11;32.73;96326.06;4957478;28;20324;-27
2022/07/25 04:22:18;;;;;;;6.55;5.40;;;;;;;31.11;32.70;96323.44;4953752;28;20088;-33
2022/07/25 04:24:43;;;;;;;7.05;5.82;;;;;;;31.12;32.63;96322.50;4965523;28;20476;-31
2022/07/25 04:27:08;;;;;;;8.93;5.53;;;;;;;31.11;32.69;96324.28;4962205;28;20037;-30
2022/07/25 04:29:34;;;;;;;5.53;5.03;;;;;;;31.12;32.53;96330.44;4954962;28;20034;-29
2022/07/25 04:31:59;;;;;;;6.70;5.60;;;;;;;31.12;32.46;96328.59;4963537;28;20033;-26
2022/07/25 04:34:25;;;;;;;8.88;5.47;;;;;;;31.13;32.57;96324.16;4962615;28;20045;-28
2022/07/25 04:36:50;;;;;;;6.95;5.40;;;;;;;31.12;32.48;96333.91;4966595;28;20022;-28
2022/07/25 04:39:15;;;;;;;5.93;5.30;;;;;;;31.10;32.78;96324.41;4963540;28;20057;-31
2022/07/25 04:41:41;;;;;;;10.20;5.78;;;;;;;31.13;32.84;96329.44;4962227;28;20104;-28
2022/07/25 04:44:07;;;;;;;9.70;6.20;;;;;;;31.13;32.28;96329.44;4962261;28;20065;-27
2022/07/25 04:46:32;;;;;;;6.70;6.05;;;;;;;31.12;32.49;96323.31;4965054;28;20974;-31
2022/07/25 04:48:57;;;;;;;6.85;6.13;;;;;;;31.12;32.73;96327.78;4967872;28;20040;-29
2022/07/25 04:51:23;;;;;;;8.90;6.03;;;;;;;31.10;32.74;96324.41;4962180;28;20046;-30
2022/07/25 04:53:48;;;;;;;7.45;6.18;;;;;;;31.09;32.66;96317.44;4966943;28;20029;-32
2022/07/25 04:56:14;;;;;;;6.82;5.97;;;;;;;31.09;32.59;96317.44;4970114;28;20029;-30
2022/07/25 04:58:39;;;;;;;10.60;6.40;;;;;;;31.07;32.66;96327.28;4964378;28;21024;-26
2022/07/25 05:01:06;;;;;;;6.85;6.20;;;;;;;31.06;32.97;96315.88;4956728;28;20040;-26
2022/07/25 05:03:31;;;;;;;8.85;6.72;;;;;;;31.06;32.65;96318.53;4964841;28;20053;-33
2022/07/25 05:05:56;;;;;;;7.43;6.65;;;;;;;31.04;32.83;96317.81;4964167;28;21010;-27
2022/07/25 05:08:22;;;;;;;9.38;6.68;;;;;;;31.01;32.93;96321.56;4959835;28;20295;-30
2022/07/25 05:10:47;;;;;;;7.75;6.05;;;;;;;31.01;32.92;96320.72;4963475;28;20731;-27
2022/07/25 05:13:13;;;;;;;8.35;6.53;;;;;;;31.00;32.81;96322.53;4961065;28;20567;-28
2022/07/25 05:15:38;;;;;;;8.73;6.78;;;;;;;30.98;32.86;96313.03;4964413;28;22171;-31
2022/07/25 05:18:03;;;;;;;7.57;6.75;;;;;;;30.97;32.69;96311.34;4964827;28;20029;-29
2022/07/25 05:20:29;;;;;;;7.70;6.85;;;;;;;30.96;32.87;96313.16;4961639;28;20025;-26
2022/07/25 05:22:54;;;;;;;7.07;6.28;;;;;;;30.96;32.82;96307.88;4960149;28;20690;-27
2022/07/25 05:25:20;;;;;;;8.40;6.38;;;;;;;30.97;32.68;96306.06;4958320;28;20041;-28
2022/07/25 05:27:45;;;;;;;7.72;6.90;;;;;;;30.96;32.93;96302.56;4960555;28;20543;-31
2022/07/25 05:30:11;;;;;;;9.50;6.70;;;;;;;30.96;32.68;96299.94;4960481;28;20041;-28
2022/07/25 05:32:37;;;;;;;15.43;7.03;;;;;;;30.97;32.83;96306.88;4961368;28;20065;-30
2022/07/25 05:35:04;;;;;;;13.25;6.65;;;;;;;30.96;32.94;96305.22;4970238;28;20139;-26
2022/07/25 05:37:29;;;;;;;16.05;7.80;;;;;;;30.96;32.90;96302.56;4960809;28;20032;-29
2022/07/25 05:39:54;;;;;;;13.63;7.47;;;;;;;30.96;32.63;96307.00;4957633;28;20219;-28
2022/07/25 05:42:20;;;;;;;15.10;7.60;;;;;;;30.94;32.96;96309.81;4953930;28;21012;-28
2022/07/25 05:44:45;;;;;;;10.43;7.38;;;;;;;30.93;33.00;96307.28;4956942;28;20099;-30
2022/07/25 05:47:11;;;;;;;9.55;7.45;;;;;;;30.90;33.16;96303.09;4956674;28;20171;-28
2022/07/25 05:49:37;;;;;;;8.55;7.38;;;;;;;30.88;33.07;96300.56;4950506;28;20029;-29
2022/07/25 05:52:02;;;;;;;11.80;7.60;;;;;;;30.87;33.25;96298.03;4960228;28;20022;-33
2022/07/25 05:54:28;;;;;;;9.50;7.78;;;;;;;30.85;33.23;96289.38;4958902;28;20033;-30
2022/07/25 05:56:53;;;;;;;10.75;7.25;;;;;;;30.84;33.13;96287.69;4958105;28;22325;-30
2022/07/25 05:59:19;;;;;;;9.40;7.45;;;;;;;30.82;33.39;96277.25;4956905;28;20042;-28
2022/07/25 06:01:44;;;;;;;8.52;7.20;;;;;;;30.81;33.09;96277.41;4956742;28;20158;-28
2022/07/25 06:04:10;;;;;;;10.82;7.20;;;;;;;30.80;33.09;96276.53;4963460;28;20128;-30
2022/07/25 06:06:35;;;;;;;7.97;7.13;;;;;;;30.80;33.15;96271.25;4961783;28;20068;-32
2022/07/25 06:09:01;;;;;;;10.68;7.50;;;;;;;30.81;33.37;96277.41;4961377;28;20037;-26
2022/07/25 06:11:27;;;;;;;11.23;7.28;;;;;;;30.79;33.09;96274.88;4963558;28;20034;-28
2022/07/25 06:13:53;;;;;;;8.25;7.05;;;;;;;30.80;33.30;96270.41;4962618;28;20140;-31
2022/07/25 06:16:18;;;;;;;10.35;7.50;;;;;;;30.80;33.35;96270.41;4965130;28;22243;-26
2022/07/25 06:18:43;;;;;;;10.70;7.07;;;;;;;30.79;33.20;96268.72;4963888;28;20057;-30
2022/07/25 06:21:09;;;;;;;9.20;7.15;;;;;;;30.75;33.42;96262.88;4962732;28;21406;-27
2022/07/25 06:23:34;;;;;;;10.68;7.47;;;;;;;30.80;33.29;96265.97;4959705;28;20038;-31
2022/07/25 06:25:59;;;;;;;9.75;7.50;;;;;;;30.82;33.14;96268.50;4956941;28;20041;-31
2022/07/25 06:28:25;;;;;;;10.30;7.10;;;;;;;30.82;33.40;96269.31;4952564;28;20092;-29
2022/07/25 06:30:50;;;;;;;12.98;7.40;;;;;;;30.83;33.22;96262.22;4958562;28;20034;-31
2022/07/25 06:33:16;;;;;;;7.45;6.57;;;;;;;30.84;33.42;96266.53;4959835;28;20034;-30
2022/07/25 06:35:41;;;;;;;12.52;7.35;;;;;;;30.85;33.11;96270.84;4956621;28;20026;-28
2022/07/25 06:38:06;;;;;;;10.98;7.32;;;;;;;30.85;33.21;96265.56;4955250;28;20534;-26
2022/07/25 06:40:32;;;;;;;11.90;7.35;;;;;;;30.85;33.41;96263.78;4959591;28;20030;-31
2022/07/25 06:42:57;;;;;;;14.63;7.35;;;;;;;30.87;32.96;96261.00;4956811;28;20864;-30
2022/07/25 06:45:23;;;;;;;12.23;7.35;;;;;;;30.87;33.05;96264.50;4958584;28;20088;-26
2022/07/25 06:47:48;;;;;;;12.57;7.43;;;;;;;30.88;33.24;96263.53;4968314;28;20428;-27
2022/07/25 06:50:17;;;;;;;10.68;7.20;;;;;;;30.88;33.33;96263.53;4962458;28;20029;-29
2022/07/25 06:56:04;;;;;;;14.27;7.13;;;;;;;30.89;32.99;96254.63;4970550;28;20103;-33
2022/07/25 06:58:30;;;;;;;16.95;8.02;;;;;;;30.91;33.20;96257.13;4960166;28;20910;-32
2022/07/25 07:00:55;;;;;;;15.70;7.47;;;;;;;30.91;33.11;96259.78;4964015;28;20566;-31
2022/07/25 07:03:21;;;;;;;10.95;7.30;;;;;;;30.90;33.28;96253.66;4958823;28;20468;-34
2022/07/25 07:05:46;;;;;;;10.43;7.63;;;;;;;30.92;33.27;96253.53;4957871;28;20096;-30
2022/07/25 07:08:11;;;;;;;12.18;6.95;;;;;;;30.93;32.99;96249.91;4958467;28;20816;-32
2022/07/25 07:10:38;;;;;;;12.88;7.57;;;;;;;30.92;32.84;96253.53;4960701;28;20041;-28
2022/07/25 07:13:09;;;;;;;10.05;7.15;;;;;;;30.94;33.19;96262.19;4960999;28;20472;-29
2022/07/25 07:15:35;;;;;;;8.80;6.97;;;;;;;30.95;32.99;96249.78;4965309;28;20034;-28
2022/07/25 07:18:00;;;;;;;9.07;7.07;;;;;;;30.95;33.22;96253.28;4964837;28;20533;-27
2022/07/25 07:20:25;;;;;;;7.68;6.80;;;;;;;30.96;33.27;96252.31;4962525;28;20377;-31
2022/07/25 07:22:51;;;;;;;10.18;6.82;;;;;;;30.98;33.01;96250.38;4972619;28;20029;-29
2022/07/25 07:25:17;;;;;;;10.00;7.63;;;;;;;31.00;33.17;96245.78;4960057;28;20033;-27
2022/07/25 07:27:43;;;;;;;8.07;7.28;;;;;;;31.01;33.01;96247.47;4962278;28;20055;-28
2022/07/25 07:30:09;;;;;;;12.80;7.47;;;;;;;31.03;33.08;96240.25;4966340;28;20054;-32
2022/07/25 07:32:34;;;;;;;10.65;7.47;;;;;;;31.02;33.11;96235.91;4958184;28;20034;-29
2022/07/25 07:34:59;;;;;;;13.32;7.45;;;;;;;31.03;32.86;96250.84;4957519;28;20925;-33
2022/07/25 07:37:25;;;;;;;11.13;7.55;;;;;;;31.06;33.12;96238.31;4957316;28;20026;-28
2022/07/25 07:39:50;;;;;;;14.20;7.43;;;;;;;31.07;32.94;96250.56;4958173;28;20155;-28
2022/07/25 07:42:16;;;;;;;14.70;7.32;;;;;;;31.08;33.32;96241.66;4958679;28;20779;-32
2022/07/25 07:44:41;;;;;;;13.50;7.47;;;;;;;31.10;33.36;96239.72;4958613;28;20046;-25
2022/07/25 07:47:07;;;;;;;12.30;7.25;;;;;;;31.11;33.25;96231.66;4958922;28;20042;-28
2022/07/25 07:49:32;;;;;;;20.30;7.63;;;;;;;31.13;33.34;96231.53;4945937;28;20787;-26
2022/07/25 07:51:57;;;;;;;15.07;7.90;;;;;;;31.15;33.18;96232.22;4948811;28;20034;-32
2022/07/25 07:57:07;;;;;;;8.95;7.50;;;;;;;31.17;33.30;96230.31;4952361;28;20056;-31
2022/07/25 07:59:32;;;;;;;10.88;7.25;;;;;;;31.17;33.24;96225.84;4958802;28;20390;-32
2022/07/25 08:01:58;;;;;;;11.52;7.00;;;;;;;31.16;33.00;96224.16;4963271;28;20033;-31
2022/07/25 08:04:23;;;;;;;10.05;6.85;;;;;;;31.13;33.39;96215.66;4961836;28;20326;-30
2022/07/25 08:06:48;;;;;;;10.82;7.28;;;;;;;31.17;33.26;96220.53;4957398;28;20713;-33
2022/07/25 08:09:14;;;;;;;9.82;7.13;;;;;;;31.19;33.22;96223.06;4952529;28;20155;-30
2022/07/25 08:11:39;;;;;;;14.70;7.18;;;;;;;31.19;33.32;96223.06;4957002;28;20037;-33
2022/07/25 08:14:05;;;;;;;18.05;8.23;;;;;;;31.19;32.95;96217.78;4963226;28;20026;-33
2022/07/25 08:16:32;;;;;;;10.15;6.63;;;;;;;31.20;33.35;96224.72;4955927;28;20038;-28
2022/07/25 08:18:57;;;;;;;11.57;7.30;;;;;;;31.21;33.32;96221.13;4956990;28;20046;-30
2022/07/25 08:21:22;;;;;;;11.73;7.40;;;;;;;31.23;33.13;96226.28;4955994;28;20061;-30
2022/07/25 08:23:48;;;;;;;10.93;7.30;;;;;;;31.22;33.03;96222.81;4958210;28;20061;-26
2022/07/25 08:26:13;;;;;;;10.25;6.93;;;;;;;31.22;33.31;96225.47;4952397;28;20111;-33
2022/07/25 08:28:39;;;;;;;11.15;7.05;;;;;;;31.22;33.12;96228.09;4962225;28;20021;-26
2022/07/25 08:31:05;;;;;;;10.95;7.30;;;;;;;31.23;33.34;96224.47;4961044;28;20778;-31
2022/07/25 08:33:30;;;;;;;10.05;7.60;;;;;;;31.23;33.00;96229.78;4965911;28;20035;-29
2022/07/25 08:35:57;;;;;;;11.55;7.60;;;;;;;31.24;33.49;96226.16;4962306;28;20030;-32
2022/07/25 08:38:23;;;;;;;12.15;7.65;;;;;;;31.23;33.36;96229.78;4966524;28;20104;-29
2022/07/25 08:40:49;;;;;;;12.27;7.53;;;;;;;31.25;33.44;96230.50;4961698;28;20026;-33
2022/07/25 08:43:15;;;;;;;9.23;7.20;;;;;;;31.25;33.06;96222.56;4963483;28;20041;-31
2022/07/25 08:45:43;;;;;;;11.55;7.57;;;;;;;31.26;33.11;96229.53;4964440;28;20441;-30
2022/07/25 08:48:09;;;;;;;10.63;7.18;;;;;;;31.28;33.13;96232.03;4966392;28;20053;-33
2022/07/25 08:50:34;;;;;;;9.95;6.80;;;;;;;31.26;33.52;96229.53;4972410;28;20028;-31
2022/07/25 08:52:59;;;;;;;11.00;8.05;;;;;;;31.27;33.08;96225.91;4942609;28;20033;-30
2022/07/25 08:55:27;;;;;;;11.43;7.63;;;;;;;31.28;33.48;96221.47;4961755;28;20026;-31
2022/07/25 08:57:53;;;;;;;9.70;7.50;;;;;;;31.29;33.12;96223.13;4958816;28;20721;-33
2022/07/25 09:00:23;;;;;;;11.80;6.93;;;;;;;31.28;33.43;96219.63;4996745;28;20040;-32
2022/07/25 09:02:59;;;;;;;11.90;6.88;;;;;;;31.30;33.21;96222.16;4964564;28;20018;-28
2022/07/25 09:05:25;;;;;;;9.85;7.53;;;;;;;31.31;33.45;96215.09;4965993;28;20046;-30
2022/07/25 09:07:51;;;;;;;9.65;7.10;;;;;;;31.32;33.22;96211.47;4966534;28;20573;-27
2022/07/25 09:10:17;;;;;;;8.95;6.85;;;;;;;31.32;33.08;96204.38;4971280;28;20633;-34
2022/07/25 09:12:54;;;;;;;8.45;6.68;;;;;;;31.32;33.16;96206.19;4973175;28;20534;-27
2022/07/25 09:15:46;;;;;;;8.50;6.57;;;;;;;31.31;33.10;96199.22;4958760;28;20037;-31
2022/07/25 09:18:12;;;;;;;;;;;;;;;31.33;33.31;96197.25;4964245;28;20132;-27
2022/07/25 09:20:42;;;;;;;8.57;6.72;;;;;;;31.34;33.16;96194.47;4964214;28;20340;-30
2022/07/25 09:23:08;;;;;;;8.25;6.68;;;;;;;31.34;33.13;96193.63;4973910;28;20040;-27
2022/07/25 09:25:34;;;;;;;8.18;6.70;;;;;;;31.34;33.58;96183.03;4959450;28;20225;-27
2022/07/25 09:28:14;;;;;;;7.93;6.57;;;;;;;31.34;33.16;96204.22;4968077;28;20040;-29
2022/07/25 09:30:40;;;;;;;6.97;6.28;;;;;;;31.34;33.42;96198.94;4966601;28;20112;-33
2022/07/25 09:33:06;;;;;;;8.02;6.38;;;;;;;31.34;33.43;96183.03;4966083;28;20424;-31
2022/07/25 09:35:32;;;;;;;9.80;6.13;;;;;;;31.35;33.25;96195.31;4968947;28;20025;-31
2022/07/25 09:38:11;;;;;;;7.03;5.78;;;;;;;31.35;33.40;96190.03;4963464;28;20842;-31
2022/07/25 09:40:36;;;;;;;8.45;6.30;;;;;;;31.35;33.26;96201.44;4959460;28;20042;-31
2022/07/25 09:43:02;;;;;;;8.07;5.85;;;;;;;31.36;33.38;96192.53;4970248;28;20192;-30
2022/07/25 09:45:27;;;;;;;8.15;6.40;;;;;;;31.36;33.21;96191.69;4966632;28;20022;-28
2022/07/25 09:47:58;;;;;;;8.65;6.05;;;;;;;31.37;33.25;96188.09;4967687;28;20096;-27
2022/07/25 09:50:24;;;;;;;9.25;6.43;;;;;;;31.37;33.20;96188.09;4966640;28;21109;-27
2022/07/25 09:52:51;;;;;;;7.40;6.13;;;;;;;31.38;33.17;96184.47;4972082;28;20202;-26
2022/07/25 09:55:16;;;;;;;7.20;5.43;;;;;;;31.39;33.34;96183.50;4964568;28;20025;-29
2022/07/25 09:57:43;;;;;;;8.93;5.38;;;;;;;31.39;33.52;96180.84;4967935;28;20835;-27
2022/07/25 10:00:09;;;;;;;6.35;5.75;;;;;;;31.39;33.44;96181.69;4968384;28;20030;-30
2022/07/25 10:02:47;;;;;;;7.18;5.32;;;;;;;31.39;33.06;96178.22;4968544;28;20334;-28
2022/07/25 10:05:34;;;;;;;7.45;5.60;;;;;;;31.40;33.19;96174.59;4966125;28;20238;-28
2022/07/25 10:07:59;;;;;;;6.10;5.50;;;;;;;31.41;33.19;96173.59;4970347;28;20087;-32
2022/07/25 10:10:26;;;;;;;7.97;5.45;;;;;;;31.42;33.12;96169.97;4949554;28;20546;-29
2022/07/25 10:13:10;;;;;;;7.00;5.22;;;;;;;31.41;33.28;96173.59;4967099;28;20458;-28
2022/07/25 10:15:39;;;;;;;5.88;5.28;;;;;;;31.41;33.17;96157.72;4969902;28;20046;-30
2022/07/25 10:18:07;;;;;;;8.52;5.38;;;;;;;31.42;33.25;96164.69;4966425;28;20038;-30
2022/07/25 10:20:32;;;;;;;6.40;5.80;;;;;;;31.43;33.04;96171.66;4967671;28;20033;-29
2022/07/25 10:22:58;;;;;;;7.07;5.30;;;;;;;31.41;33.30;96160.38;4966879;28;20040;-28
2022/07/25 10:25:23;;;;;;;6.05;5.18;;;;;;;31.42;33.30;96160.25;4967098;28;20092;-32
2022/07/25 10:27:51;;;;;;;6.53;5.20;;;;;;;31.44;33.32;96157.47;4970182;28;20029;-32
2022/07/25 10:30:27;;;;;;;6.72;5.10;;;;;;;31.45;33.37;96163.59;4960832;28;20018;-30
2022/07/25 10:32:55;;;;;;;5.65;5.07;;;;;;;31.45;33.48;96169.72;4966538;28;20267;-31
2022/07/25 10:35:21;;;;;;;5.18;4.68;;;;;;;31.46;33.35;96160.81;4967727;28;20026;-26
2022/07/25 10:37:49;;;;;;;6.22;4.70;;;;;;;31.46;33.45;96158.16;4967602;28;20057;-31
2022/07/25 10:40:38;;;;;;;5.25;4.75;;;;;;;31.47;33.03;96149.22;4966324;28;20061;-29
2022/07/25 10:43:04;;;;;;;6.70;5.10;;;;;;;31.47;33.45;96146.59;4966003;28;20091;-31
2022/07/25 10:45:37;;;;;;;6.63;5.18;;;;;;;31.48;33.31;96150.09;4955320;28;20931;-27
2022/07/25 10:48:06;;;;;;;10.63;5.10;;;;;;;31.48;33.45;96143.00;4950870;28;20042;-33
2022/07/25 10:50:31;;;;;;;8.30;5.00;;;;;;;31.48;33.25;96144.78;4965737;28;20679;-33
2022/07/25 10:53:06;;;;;;;18.33;6.30;;;;;;;31.50;33.09;96135.75;4959327;28;20034;-30
2022/07/25 10:55:33;;;;;;;12.45;5.25;;;;;;;31.51;33.19;96134.75;4965962;28;20022;-29
2022/07/25 10:58:05;;;;;;;13.38;5.10;;;;;;;31.51;32.94;96137.41;4958984;28;20030;-38
2022/07/25 11:00:31;;;;;;;9.18;5.65;;;;;;;31.52;33.14;96139.09;4959987;28;20022;-31
2022/07/25 11:02:56;;;;;;;9.70;4.72;;;;;;;31.52;33.28;96143.56;4953816;28;20052;-28
2022/07/25 11:05:22;;;;;;;16.33;4.85;;;;;;;31.53;33.12;96139.94;4960471;28;20694;-28
2022/07/25 11:07:51;;;;;;;8.90;5.03;;;;;;;31.54;33.29;96137.16;4962099;28;20030;-31
2022/07/25 11:10:24;;;;;;;14.23;5.35;;;;;;;31.55;33.43;96138.81;4968476;28;20030;-30
2022/07/25 11:12:49;;;;;;;24.50;5.55;;;;;;;31.57;33.14;96137.88;4966758;28;20604;-28
2022/07/25 11:15:14;;;;;;;16.88;4.85;;;;;;;31.58;33.22;96131.59;4962634;28;20045;-28
2022/07/25 11:17:49;;;;;;;9.95;5.07;;;;;;;31.58;33.34;96121.00;4969086;28;20436;-27
2022/07/25 11:20:15;;;;;;;12.93;5.18;;;;;;;31.59;33.34;96117.38;4969775;28;20117;-30
2022/07/25 11:22:40;;;;;;;12.45;5.50;;;;;;;31.59;33.38;96126.16;4961251;28;20034;-28
2022/07/25 11:25:13;;;;;;;13.93;5.72;;;;;;;31.60;33.38;96119.03;4963455;28;20258;-30
2022/07/25 11:27:38;;;;;;;14.32;5.70;;;;;;;31.60;33.03;96108.44;4964546;28;20034;-30
2022/07/25 11:30:17;;;;;;;14.25;5.20;;;;;;;31.61;33.15;96112.75;4961510;28;20542;-28
2022/07/25 11:32:50;;;;;;;8.95;5.45;;;;;;;31.62;33.09;96101.22;4967766;28;20021;-30